KFEW

Francis E Warren AFB Heliport

Cheyenne, Wyoming, USA
METAR KFEW 212308Z AUTO 16008G17KT 10SM -SHRA FEW037 BKN075 16/10 A3036 RMK AO2 SHRAE2258SHRAB08 SLP232 $
Observed Flight Rules
Aug-21 @ 23:08 UTC (39 minutes ago) Visual Flight Rules
Wind Visibility Clouds Conditions
160° at 8 knots
 Gusting to 17 knots
10 miles
  • Few at 3,700' AGL
  • Broken at 7,500' AGL
  • Light Rain
Temperatures Readings
Current 16°C / 61°F
Dewpoint 10°C / 50°F
Humidity 68%
Altimeter 30.36" Hg
Pressure 1023.2 hPa
Elevation 1878
METAR KFEW 212308Z AUTO 16008G17KT 10SM -SHRA FEW037 BKN075 16/10 A3036 RMK AO2 SHRAE2258SHRAB08 SLP232 $
Observed Flight Rules
Aug-21 @ 23:08 UTC
(39 minutes ago)
VFR
Wind Visibility
160° at 8 knots
 Gusting to 17 knots
10 miles
Clouds
  • Few at 3,700' AGL
  • Broken at 7,500' AGL
Conditions
  • Light Rain
Temperature Dewpoint
16°C / 61°F 10°C / 50°F
Humidity Altimeter Pressure
68% 30.36" Hg 1023.2 hPa